<?xml version="1.0" encoding="UTF-8" standalone="no" ?>
<gpx xmlns="http://www.topografix.com/GPX/1/1" xmlns:xsi="http://www.w3.org/2001/XMLSchema-instance" xsi:schemaLocation="http://www.topografix.com/GPX/1/1 http://www.topografix.com/GPX/1/1/gpx.xsd" version="1.1" creator="VisuGPX - https://www.visugpx.com">
  <metadata>
    <name>Transcaucasie: Géorgie + Arménie</name>
  </metadata>
  <trk>
    <name><![CDATA[1_Batoumi à Tbilissi_989km_15days - Jour 6 - De Mestia à Ouchgouli]]></name>
    <extensions>
      <line xmlns="http://www.topografix.com/GPX/gpx_style/0/2">
        <color>FF00FF</color>
        <width>4</width>
      </line>
    </extensions>
    <trkseg>
      <trkpt lat="43.04101" lon="42.72615">
        <ele>1421.369481</ele>
        <time>2021-08-23T06:30:11.667Z</time>
      </trkpt>
      <trkpt lat="43.04062" lon="42.72735">
        <ele>1422.701629</ele>
        <time>2021-08-23T06:31:08.148Z</time>
      </trkpt>
      <trkpt lat="43.04031" lon="42.73065">
        <ele>1449.45922</ele>
        <time>2021-08-23T06:34:34.623Z</time>
      </trkpt>
      <trkpt lat="43.04049" lon="42.73734">
        <ele>1485.160991</ele>
        <time>2021-08-23T06:39:33.784Z</time>
      </trkpt>
      <trkpt lat="43.03955" lon="42.74459">
        <ele>1524.07988</ele>
        <time>2021-08-23T06:45:10.136Z</time>
      </trkpt>
      <trkpt lat="43.03942" lon="42.74944">
        <ele>1551.77194</ele>
        <time>2021-08-23T06:48:51.834Z</time>
      </trkpt>
      <trkpt lat="43.03853" lon="42.747">
        <ele>1590.120472</ele>
        <time>2021-08-23T06:53:34.516Z</time>
      </trkpt>
      <trkpt lat="43.03777" lon="42.73983">
        <ele>1627.448128</ele>
        <time>2021-08-23T06:58:46.246Z</time>
      </trkpt>
      <trkpt lat="43.03573" lon="42.73505">
        <ele>1660.661404</ele>
        <time>2021-08-23T07:03:40.136Z</time>
      </trkpt>
      <trkpt lat="43.03676" lon="42.73848">
        <ele>1638.507023</ele>
        <time>2021-08-23T07:05:53.904Z</time>
      </trkpt>
      <trkpt lat="43.03796" lon="42.74432">
        <ele>1610.39067</ele>
        <time>2021-08-23T07:07:24.335Z</time>
      </trkpt>
      <trkpt lat="43.03893" lon="42.7494">
        <ele>1568.599183</ele>
        <time>2021-08-23T07:08:26.669Z</time>
      </trkpt>
      <trkpt lat="43.03985" lon="42.74933">
        <ele>1535.970887</ele>
        <time>2021-08-23T07:09:18.317Z</time>
      </trkpt>
      <trkpt lat="43.04184" lon="42.75395">
        <ele>1516.639717</ele>
        <time>2021-08-23T07:10:37.489Z</time>
      </trkpt>
      <trkpt lat="43.04123" lon="42.75995">
        <ele>1486.347779</ele>
        <time>2021-08-23T07:11:58.330Z</time>
      </trkpt>
      <trkpt lat="43.04242" lon="42.76989">
        <ele>1499.710733</ele>
        <time>2021-08-23T07:16:55.136Z</time>
      </trkpt>
      <trkpt lat="43.04443" lon="42.78142">
        <ele>1497.674094</ele>
        <time>2021-08-23T07:20:53.454Z</time>
      </trkpt>
      <trkpt lat="43.04566" lon="42.78805">
        <ele>1499.406415</ele>
        <time>2021-08-23T07:23:30.206Z</time>
      </trkpt>
      <trkpt lat="43.04599" lon="42.79375">
        <ele>1508.521433</ele>
        <time>2021-08-23T07:26:11.237Z</time>
      </trkpt>
      <trkpt lat="43.04639" lon="42.79812">
        <ele>1515.387584</ele>
        <time>2021-08-23T07:28:23.749Z</time>
      </trkpt>
      <trkpt lat="43.04501" lon="42.80199">
        <ele>1516.580949</ele>
        <time>2021-08-23T07:30:01.255Z</time>
      </trkpt>
      <trkpt lat="43.04654" lon="42.80636">
        <ele>1508.582827</ele>
        <time>2021-08-23T07:31:20.144Z</time>
      </trkpt>
      <trkpt lat="43.04601" lon="42.81517">
        <ele>1524.242022</ele>
        <time>2021-08-23T07:35:38.589Z</time>
      </trkpt>
      <trkpt lat="43.04481" lon="42.81864">
        <ele>1529.735763</ele>
        <time>2021-08-23T07:37:26.120Z</time>
      </trkpt>
      <trkpt lat="43.04157" lon="42.82771">
        <ele>1584.713114</ele>
        <time>2021-08-23T07:45:10.268Z</time>
      </trkpt>
      <trkpt lat="43.03971" lon="42.84048">
        <ele>1668.76279</ele>
        <time>2021-08-23T07:56:13.406Z</time>
      </trkpt>
      <trkpt lat="43.03901" lon="42.84654">
        <ele>1703.574649</ele>
        <time>2021-08-23T08:01:04.339Z</time>
      </trkpt>
      <trkpt lat="43.03854" lon="42.8442">
        <ele>1725.628248</ele>
        <time>2021-08-23T08:04:09.712Z</time>
      </trkpt>
      <trkpt lat="43.0383" lon="42.83748">
        <ele>1772.759703</ele>
        <time>2021-08-23T08:10:15.130Z</time>
      </trkpt>
      <trkpt lat="43.03669" lon="42.8289">
        <ele>1817.895709</ele>
        <time>2021-08-23T08:16:42.305Z</time>
      </trkpt>
      <trkpt lat="43.03627" lon="42.82935">
        <ele>1833.646378</ele>
        <time>2021-08-23T08:19:05.170Z</time>
      </trkpt>
      <trkpt lat="43.03618" lon="42.83173">
        <ele>1855.204988</ele>
        <time>2021-08-23T08:22:12.833Z</time>
      </trkpt>
      <trkpt lat="43.03529" lon="42.82561">
        <ele>1872.461484</ele>
        <time>2021-08-23T08:25:36.518Z</time>
      </trkpt>
      <trkpt lat="43.03331" lon="42.82537">
        <ele>1898.642699</ele>
        <time>2021-08-23T08:29:19.161Z</time>
      </trkpt>
      <trkpt lat="43.03003" lon="42.82573">
        <ele>1918.784597</ele>
        <time>2021-08-23T08:32:45.345Z</time>
      </trkpt>
      <trkpt lat="43.02686" lon="42.82924">
        <ele>1887.163772</ele>
        <time>2021-08-23T08:34:00.949Z</time>
      </trkpt>
      <trkpt lat="43.02325" lon="42.83162">
        <ele>1858.509928</ele>
        <time>2021-08-23T08:35:30.117Z</time>
      </trkpt>
      <trkpt lat="43.01993" lon="42.83285">
        <ele>1815.465798</ele>
        <time>2021-08-23T08:37:24.778Z</time>
      </trkpt>
      <trkpt lat="43.02036" lon="42.83164">
        <ele>1800.609547</ele>
        <time>2021-08-23T08:38:12.745Z</time>
      </trkpt>
      <trkpt lat="43.01743" lon="42.83098">
        <ele>1779.116842</ele>
        <time>2021-08-23T08:39:10.842Z</time>
      </trkpt>
      <trkpt lat="43.019" lon="42.8295">
        <ele>1746.175267</ele>
        <time>2021-08-23T08:39:57.306Z</time>
      </trkpt>
      <trkpt lat="43.01843" lon="42.83046">
        <ele>1729.711973</ele>
        <time>2021-08-23T08:40:44.180Z</time>
      </trkpt>
      <trkpt lat="43.01663" lon="42.82903">
        <ele>1701.104582</ele>
        <time>2021-08-23T08:41:46.947Z</time>
      </trkpt>
      <trkpt lat="43.01851" lon="42.82762">
        <ele>1682.05466</ele>
        <time>2021-08-23T08:42:32.540Z</time>
      </trkpt>
      <trkpt lat="43.01624" lon="42.82757">
        <ele>1649.746904</ele>
        <time>2021-08-23T08:43:38.288Z</time>
      </trkpt>
      <trkpt lat="43.01552" lon="42.8245">
        <ele>1594.145096</ele>
        <time>2021-08-23T08:44:40.732Z</time>
      </trkpt>
      <trkpt lat="43.01339" lon="42.82039">
        <ele>1555.105586</ele>
        <time>2021-08-23T08:45:48.492Z</time>
      </trkpt>
      <trkpt lat="43.01366" lon="42.82384">
        <ele>1538.698777</ele>
        <time>2021-08-23T08:46:49.596Z</time>
      </trkpt>
      <trkpt lat="43.01142" lon="42.82572">
        <ele>1526.153818</ele>
        <time>2021-08-23T08:47:39.765Z</time>
      </trkpt>
      <trkpt lat="43.009" lon="42.82811">
        <ele>1532.78717</ele>
        <time>2021-08-23T08:49:48.141Z</time>
      </trkpt>
      <trkpt lat="43.00508" lon="42.83053">
        <ele>1537.062376</ele>
        <time>2021-08-23T08:52:16.712Z</time>
      </trkpt>
      <trkpt lat="42.99938" lon="42.83614">
        <ele>1545.377977</ele>
        <time>2021-08-23T08:56:09.462Z</time>
      </trkpt>
      <trkpt lat="42.99443" lon="42.84198">
        <ele>1564.411449</ele>
        <time>2021-08-23T09:00:41.563Z</time>
      </trkpt>
      <trkpt lat="42.98892" lon="42.84619">
        <ele>1572.895795</ele>
        <time>2021-08-23T09:04:36.827Z</time>
      </trkpt>
      <trkpt lat="42.98451" lon="42.85025">
        <ele>1583.476417</ele>
        <time>2021-08-23T09:07:59.287Z</time>
      </trkpt>
      <trkpt lat="42.98266" lon="42.85298">
        <ele>1605.30868</ele>
        <time>2021-08-23T09:11:15.865Z</time>
      </trkpt>
      <trkpt lat="42.98036" lon="42.85616">
        <ele>1617.377</ele>
        <time>2021-08-23T09:13:49.746Z</time>
      </trkpt>
      <trkpt lat="42.97846" lon="42.85807">
        <ele>1616.136578</ele>
        <time>2021-08-23T09:15:16.925Z</time>
      </trkpt>
      <trkpt lat="42.97489" lon="42.86027">
        <ele>1605.617429</ele>
        <time>2021-08-23T09:16:59.095Z</time>
      </trkpt>
      <trkpt lat="42.97222" lon="42.86719">
        <ele>1612.458801</ele>
        <time>2021-08-23T09:20:20.359Z</time>
      </trkpt>
      <trkpt lat="42.96947" lon="42.8733">
        <ele>1625.506296</ele>
        <time>2021-08-23T09:25:29.453Z</time>
      </trkpt>
      <trkpt lat="42.96599" lon="42.87628">
        <ele>1644.891928</ele>
        <time>2021-08-23T09:30:15.066Z</time>
      </trkpt>
      <trkpt lat="42.96364" lon="42.881">
        <ele>1683.995256</ele>
        <time>2021-08-23T09:36:52.490Z</time>
      </trkpt>
      <trkpt lat="42.95882" lon="42.88255">
        <ele>1694.346693</ele>
        <time>2021-08-23T09:41:31.410Z</time>
      </trkpt>
      <trkpt lat="42.95566" lon="42.88446">
        <ele>1704.51077</ele>
        <time>2021-08-23T09:45:13.234Z</time>
      </trkpt>
      <trkpt lat="42.95375" lon="42.88633">
        <ele>1698.503645</ele>
        <time>2021-08-23T09:47:01.087Z</time>
      </trkpt>
      <trkpt lat="42.94806" lon="42.89009">
        <ele>1689.161801</ele>
        <time>2021-08-23T09:51:52.348Z</time>
      </trkpt>
      <trkpt lat="42.94289" lon="42.89905">
        <ele>1710.177718</ele>
        <time>2021-08-23T09:59:49.603Z</time>
      </trkpt>
      <trkpt lat="42.94157" lon="42.90352">
        <ele>1720.667715</ele>
        <time>2021-08-23T10:03:36.120Z</time>
      </trkpt>
      <trkpt lat="42.94276" lon="42.90628">
        <ele>1719.577542</ele>
        <time>2021-08-23T10:05:19.204Z</time>
      </trkpt>
      <trkpt lat="42.93991" lon="42.90997">
        <ele>1729.752363</ele>
        <time>2021-08-23T10:09:26.675Z</time>
      </trkpt>
      <trkpt lat="42.93862" lon="42.91238">
        <ele>1739.158209</ele>
        <time>2021-08-23T10:12:12.097Z</time>
      </trkpt>
      <trkpt lat="42.93485" lon="42.91726">
        <ele>1745.34877</ele>
        <time>2021-08-23T10:16:24.991Z</time>
      </trkpt>
      <trkpt lat="42.93337" lon="42.91926">
        <ele>1753.926058</ele>
        <time>2021-08-23T10:18:51.830Z</time>
      </trkpt>
      <trkpt lat="42.93147" lon="42.92055">
        <ele>1763.824889</ele>
        <time>2021-08-23T10:21:34.565Z</time>
      </trkpt>
      <trkpt lat="42.93025" lon="42.92244">
        <ele>1778.284222</ele>
        <time>2021-08-23T10:24:28.716Z</time>
      </trkpt>
      <trkpt lat="42.92901" lon="42.92917">
        <ele>1799.028806</ele>
        <time>2021-08-23T10:29:54.022Z</time>
      </trkpt>
      <trkpt lat="42.92986" lon="42.93191">
        <ele>1819.915142</ele>
        <time>2021-08-23T10:33:43.718Z</time>
      </trkpt>
      <trkpt lat="42.93182" lon="42.93617">
        <ele>1813.660947</ele>
        <time>2021-08-23T10:36:16.472Z</time>
      </trkpt>
      <trkpt lat="42.93068" lon="42.94001">
        <ele>1818.142526</ele>
        <time>2021-08-23T10:39:03.851Z</time>
      </trkpt>
      <trkpt lat="42.92917" lon="42.94394">
        <ele>1827.93695</ele>
        <time>2021-08-23T10:42:41.883Z</time>
      </trkpt>
      <trkpt lat="42.92579" lon="42.94627">
        <ele>1841.270745</ele>
        <time>2021-08-23T10:46:39.265Z</time>
      </trkpt>
      <trkpt lat="42.92269" lon="42.94829">
        <ele>1856.413782</ele>
        <time>2021-08-23T10:50:36.895Z</time>
      </trkpt>
      <trkpt lat="42.91878" lon="42.95193">
        <ele>1861.729569</ele>
        <time>2021-08-23T10:54:40.706Z</time>
      </trkpt>
      <trkpt lat="42.91876" lon="42.95692">
        <ele>1871.853143</ele>
        <time>2021-08-23T10:58:32.987Z</time>
      </trkpt>
      <trkpt lat="42.91845" lon="42.96108">
        <ele>1905.492045</ele>
        <time>2021-08-23T11:04:06.436Z</time>
      </trkpt>
      <trkpt lat="42.9196" lon="42.96471">
        <ele>1902.700386</ele>
        <time>2021-08-23T11:06:52.433Z</time>
      </trkpt>
      <trkpt lat="42.91766" lon="42.96635">
        <ele>1917.277554</ele>
        <time>2021-08-23T11:10:04.011Z</time>
      </trkpt>
      <trkpt lat="42.91756" lon="42.97017">
        <ele>1938.856362</ele>
        <time>2021-08-23T11:14:52.658Z</time>
      </trkpt>
      <trkpt lat="42.91649" lon="42.97163">
        <ele>1949.004477</ele>
        <time>2021-08-23T11:17:29.493Z</time>
      </trkpt>
      <trkpt lat="42.9148" lon="42.97451">
        <ele>1974.751972</ele>
        <time>2021-08-23T11:21:50.764Z</time>
      </trkpt>
      <trkpt lat="42.91597" lon="42.97399">
        <ele>1989.813</ele>
        <time>2021-08-23T11:24:43.623Z</time>
      </trkpt>
      <trkpt lat="42.91557" lon="42.97545">
        <ele>2003.226707</ele>
        <time>2021-08-23T11:27:39.190Z</time>
      </trkpt>
      <trkpt lat="42.91361" lon="42.98507">
        <ele>2026.035333</ele>
        <time>2021-08-23T11:34:58.169Z</time>
      </trkpt>
      <trkpt lat="42.91419" lon="42.99478">
        <ele>2056.921551</ele>
        <time>2021-08-23T11:42:54.877Z</time>
      </trkpt>
      <trkpt lat="42.91457" lon="42.99997">
        <ele>2065.986343</ele>
        <time>2021-08-23T11:46:29.805Z</time>
      </trkpt>
      <trkpt lat="42.91524" lon="43.00692">
        <ele>2077.207578</ele>
        <time>2021-08-23T11:51:15.094Z</time>
      </trkpt>
      <trkpt lat="42.91526" lon="43.0101">
        <ele>2092.534269</ele>
        <time>2021-08-23T11:54:26.330Z</time>
      </trkpt>
      <trkpt lat="42.91616" lon="43.01251">
        <ele>2100.599419</ele>
        <time>2021-08-23T11:57:05.027Z</time>
      </trkpt>
      <trkpt lat="42.91657" lon="43.01387">
        <ele>2100.599419</ele>
        <time>2021-08-23T11:58:16.545Z</time>
      </trkpt>
    </trkseg>
  </trk>
</gpx>